createdAt,value
2017-09-30T00:00:09.336Z,1017.29
2017-09-30T00:01:30.099Z,1017.27
2017-09-30T00:02:51.522Z,1017.18
2017-09-30T00:04:12.458Z,1017.23
2017-09-30T00:05:33.072Z,1017.19
2017-09-30T00:06:53.559Z,1017.16
2017-09-30T00:08:13.941Z,1017.19
2017-09-30T00:09:34.173Z,1015.02
2017-09-30T00:10:55.267Z,1017.16
2017-09-30T00:12:15.765Z,1017.31
2017-09-30T00:13:36.102Z,1017.28
2017-09-30T00:14:57.203Z,1017.31
2017-09-30T00:16:18.840Z,1017.35
2017-09-30T00:17:39.173Z,1017.26
2017-09-30T00:18:59.802Z,1017.34
2017-09-30T00:20:20.148Z,1017.30
2017-09-30T00:21:40.601Z,1017.30
2017-09-30T00:23:01.107Z,1017.29
2017-09-30T00:24:21.547Z,1017.32
2017-09-30T00:25:41.778Z,1017.30
2017-09-30T00:27:02.265Z,1017.29
2017-09-30T00:28:22.416Z,1017.26
2017-09-30T00:29:43.326Z,1017.31
2017-09-30T00:31:03.628Z,1017.32
2017-09-30T00:32:24.096Z,1017.29
2017-09-30T00:33:45.035Z,1017.37
2017-09-30T00:35:05.327Z,1015.11
2017-09-30T00:36:25.847Z,1017.29
2017-09-30T00:37:46.359Z,1017.23
2017-09-30T00:39:06.818Z,1017.21
2017-09-30T00:40:27.308Z,1017.24
2017-09-30T00:41:47.645Z,1017.22
2017-09-30T00:43:08.054Z,1017.21
2017-09-30T00:44:28.362Z,1017.23
2017-09-30T00:45:48.801Z,1017.17
2017-09-30T00:47:09.157Z,1017.16
2017-09-30T00:48:30.086Z,1017.14
2017-09-30T00:49:50.446Z,1017.13
2017-09-30T00:51:10.910Z,1017.10
2017-09-30T00:52:31.378Z,1017.11
2017-09-30T00:53:51.862Z,1017.08
2017-09-30T00:55:12.236Z,1017.14
2017-09-30T00:56:32.688Z,1017.11
2017-09-30T00:57:54.605Z,1017.13
2017-09-30T00:59:15.316Z,1017.14
2017-09-30T01:00:35.804Z,1017.12
2017-09-30T01:01:56.481Z,1017.16
2017-09-30T01:03:17.093Z,1017.12
2017-09-30T01:04:37.545Z,1017.13
2017-09-30T01:05:58.441Z,1017.23
2017-09-30T01:07:18.964Z,1017.23
2017-09-30T01:08:39.740Z,1017.24
2017-09-30T01:10:00.726Z,1017.21
2017-09-30T01:11:21.140Z,1017.20
2017-09-30T01:12:42.261Z,1017.21
2017-09-30T01:14:02.774Z,1017.21
2017-09-30T01:15:23.162Z,1016.89
2017-09-30T01:16:43.764Z,1017.26
2017-09-30T01:18:04.512Z,1017.28
2017-09-30T01:19:24.887Z,1017.26
2017-09-30T01:20:45.160Z,1017.24
2017-09-30T01:22:05.757Z,1017.21
2017-09-30T01:23:26.189Z,1017.23
2017-09-30T01:24:46.717Z,1017.23
2017-09-30T01:26:07.382Z,1017.18
2017-09-30T01:27:28.474Z,1017.16
2017-09-30T01:28:49.034Z,1017.19
2017-09-30T01:30:09.570Z,1017.12
2017-09-30T01:31:30.562Z,1017.18
2017-09-30T01:32:51.383Z,1017.14
2017-09-30T01:34:11.813Z,1017.14
2017-09-30T01:35:32.200Z,1017.09
2017-09-30T01:36:52.513Z,1017.04
2017-09-30T01:38:12.977Z,1017.00
2017-09-30T01:39:33.394Z,1016.95
2017-09-30T01:40:53.827Z,1016.98
2017-09-30T01:42:15.243Z,1017.00
2017-09-30T01:43:35.621Z,1016.96
2017-09-30T01:44:56.528Z,1016.97
2017-09-30T01:46:17.086Z,1016.94
2017-09-30T01:47:38.187Z,1016.94
2017-09-30T01:48:59.045Z,1016.89
2017-09-30T01:50:19.581Z,1016.86
2017-09-30T01:51:39.899Z,1016.86
2017-09-30T01:53:01.267Z,1016.88
2017-09-30T01:54:22.369Z,1016.86
2017-09-30T01:55:42.891Z,1016.88
2017-09-30T01:57:04.172Z,1016.83
2017-09-30T01:58:24.454Z,1016.89
2017-09-30T01:59:45.110Z,1016.87
2017-09-30T02:01:05.797Z,1016.86
2017-09-30T02:02:26.330Z,1016.92
2017-09-30T02:03:47.515Z,1016.94
2017-09-30T02:05:08.156Z,1017.04
2017-09-30T02:06:28.585Z,1017.09
2017-09-30T02:07:49.217Z,1017.20
2017-09-30T02:09:09.903Z,1017.41
2017-09-30T02:10:30.560Z,1017.50
2017-09-30T02:11:51.262Z,1017.52
2017-09-30T02:13:11.804Z,1017.47
2017-09-30T02:14:32.418Z,1017.58
2017-09-30T02:15:53.019Z,1017.67
2017-09-30T02:17:13.649Z,1017.70
2017-09-30T02:18:34.069Z,1017.69
2017-09-30T02:19:54.829Z,1017.69
2017-09-30T02:21:15.403Z,1017.70
2017-09-30T02:22:35.938Z,1017.69
2017-09-30T02:23:56.723Z,1017.60
2017-09-30T02:25:17.233Z,1017.57
2017-09-30T02:26:37.637Z,1017.59
2017-09-30T02:27:58.233Z,1017.63
2017-09-30T02:29:19.307Z,1017.56
2017-09-30T02:30:39.791Z,1017.61
2017-09-30T02:32:01.120Z,1017.59
2017-09-30T02:33:21.662Z,1017.58
2017-09-30T02:34:42.104Z,1017.52
2017-09-30T02:36:02.713Z,1017.51
2017-09-30T02:37:23.569Z,1017.45
2017-09-30T02:38:44.107Z,1017.44
2017-09-30T02:40:04.601Z,1017.36
2017-09-30T02:41:25.095Z,1017.34
2017-09-30T02:42:46.489Z,1017.35
2017-09-30T02:44:06.941Z,1017.41
2017-09-30T02:45:27.486Z,1017.47
2017-09-30T02:46:47.845Z,1017.45
2017-09-30T02:48:08.470Z,1017.43
2017-09-30T02:49:29.571Z,1017.39
2017-09-30T02:50:50.152Z,1017.43
2017-09-30T02:52:10.905Z,1017.37
2017-09-30T02:53:31.661Z,1017.36
2017-09-30T02:54:52.207Z,1017.31
2017-09-30T02:56:12.789Z,1017.32
2017-09-30T02:57:33.180Z,1017.31
2017-09-30T02:58:53.716Z,1017.38
2017-09-30T03:00:14.222Z,1017.45
2017-09-30T03:01:34.854Z,1017.44
2017-09-30T03:02:55.523Z,1017.39
2017-09-30T03:04:16.155Z,1017.34
2017-09-30T03:05:36.744Z,1017.27
2017-09-30T03:06:57.437Z,1017.19
2017-09-30T03:08:18.222Z,1017.10
2017-09-30T03:09:38.462Z,1017.10
2017-09-30T03:10:59.072Z,1017.13
2017-09-30T03:12:20.464Z,1017.15
2017-09-30T03:13:41.404Z,1017.17
2017-09-30T03:15:01.968Z,1017.20
2017-09-30T03:16:22.521Z,1017.15
2017-09-30T03:17:42.791Z,1017.10
2017-09-30T03:19:03.268Z,1017.08
2017-09-30T03:20:24.387Z,1017.08
2017-09-30T03:21:44.898Z,1017.14
2017-09-30T03:23:05.477Z,1017.15
2017-09-30T03:24:25.981Z,1017.15
2017-09-30T03:25:46.597Z,1017.12
2017-09-30T03:27:07.173Z,1017.13
2017-09-30T03:28:27.594Z,1017.12
2017-09-30T03:29:48.008Z,1017.13
2017-09-30T03:36:10.717Z,1017.16
2017-09-30T03:37:31.217Z,1017.17
2017-09-30T03:38:52.148Z,1017.14
2017-09-30T03:40:12.674Z,1017.11
2017-09-30T03:41:33.395Z,1017.10
2017-09-30T03:42:54.328Z,1017.08
2017-09-30T03:44:15.141Z,1017.08
2017-09-30T03:45:35.568Z,1017.04
2017-09-30T03:46:56.264Z,1017.05
2017-09-30T03:48:17.350Z,1017.03
2017-09-30T03:49:37.859Z,1017.08
2017-09-30T03:50:58.448Z,1017.07
2017-09-30T03:52:19.180Z,1017.07
2017-09-30T03:53:39.789Z,1015.29
2017-09-30T03:55:00.417Z,1017.09
2017-09-30T03:56:20.993Z,1017.07
2017-09-30T03:57:41.564Z,1017.02
2017-09-30T03:59:02.973Z,1017.06
2017-09-30T04:00:23.297Z,1017.05
2017-09-30T04:01:43.826Z,1017.09
2017-09-30T04:03:04.726Z,1017.04
2017-09-30T04:04:25.358Z,1017.05
2017-09-30T04:05:45.852Z,1017.07
2017-09-30T04:07:06.254Z,1017.10
2017-09-30T04:08:26.865Z,1017.05
2017-09-30T04:09:47.177Z,1016.97
2017-09-30T04:11:07.680Z,1016.94
2017-09-30T04:12:28.119Z,1016.91
2017-09-30T04:13:48.683Z,1016.84
2017-09-30T04:15:09.187Z,1016.81
2017-09-30T04:16:29.761Z,1016.78
2017-09-30T04:17:50.671Z,1016.76
2017-09-30T04:19:11.257Z,1016.77
2017-09-30T04:20:32.490Z,1016.80
2017-09-30T04:21:53.128Z,1016.80
2017-09-30T04:23:13.649Z,1016.78
2017-09-30T04:24:34.636Z,1016.79
2017-09-30T04:25:55.237Z,1016.79
2017-09-30T04:27:16.069Z,1016.79
2017-09-30T04:28:36.601Z,1016.81
2017-09-30T04:29:57.156Z,1016.83
2017-09-30T04:31:18.191Z,1016.85
2017-09-30T04:32:38.516Z,1016.83
2017-09-30T04:33:59.285Z,1016.82
2017-09-30T04:35:20.040Z,1016.74
2017-09-30T04:36:40.426Z,1016.69
2017-09-30T04:38:00.958Z,1016.71
2017-09-30T04:39:21.416Z,1016.73
2017-09-30T04:40:41.902Z,1016.73
2017-09-30T04:42:02.884Z,1016.77
2017-09-30T04:43:23.284Z,1016.79
2017-09-30T04:44:43.631Z,1016.73
2017-09-30T04:46:04.142Z,1016.77
2017-09-30T04:47:24.788Z,1015.13
2017-09-30T04:48:45.340Z,1016.72
2017-09-30T04:50:06.611Z,1016.70
2017-09-30T04:51:26.996Z,1016.69
2017-09-30T04:52:47.539Z,1016.65
2017-09-30T04:54:08.573Z,1016.58
2017-09-30T04:55:28.977Z,1016.57
2017-09-30T04:56:49.487Z,1016.40
2017-09-30T04:58:11.501Z,1016.49
2017-09-30T04:59:31.956Z,1016.47
2017-09-30T05:00:52.443Z,1016.39
2017-09-30T05:02:13.024Z,1016.33
2017-09-30T05:03:33.444Z,1016.34
2017-09-30T05:04:53.778Z,1016.33
2017-09-30T05:06:14.781Z,1016.36
2017-09-30T05:07:35.354Z,1016.31
2017-09-30T05:08:56.076Z,1016.26
2017-09-30T05:10:16.489Z,1016.21
2017-09-30T05:11:36.881Z,1016.22
2017-09-30T05:12:57.605Z,1016.15
2017-09-30T05:14:18.335Z,1014.52
2017-09-30T05:15:38.797Z,1016.09
2017-09-30T05:16:59.275Z,1016.06
2017-09-30T05:18:19.682Z,1016.06
2017-09-30T05:19:40.806Z,1016.05
2017-09-30T05:21:01.591Z,1016.06
2017-09-30T05:22:22.178Z,1016.03
2017-09-30T05:23:42.656Z,1016.05
2017-09-30T05:25:03.413Z,1016.06
2017-09-30T05:26:24.061Z,1016.06
2017-09-30T05:27:44.649Z,1013.79
2017-09-30T05:29:05.026Z,1016.08
2017-09-30T05:30:26.315Z,1016.12
2017-09-30T05:31:46.601Z,1016.08
2017-09-30T05:33:07.259Z,1016.20
2017-09-30T05:34:28.389Z,1016.21
2017-09-30T05:35:49.020Z,1016.27
2017-09-30T05:37:09.690Z,1016.29
2017-09-30T05:38:30.977Z,1016.35
2017-09-30T05:39:51.743Z,1016.34
2017-09-30T05:41:12.567Z,1016.29
2017-09-30T05:42:33.204Z,1016.29
2017-09-30T05:43:53.900Z,1016.22
2017-09-30T05:45:15.482Z,1016.27
2017-09-30T05:46:36.081Z,1016.26
2017-09-30T05:47:56.862Z,1016.32
2017-09-30T05:49:17.532Z,1016.33
2017-09-30T05:50:38.055Z,1016.36
2017-09-30T05:51:58.866Z,1016.35
2017-09-30T05:53:19.481Z,1014.07
2017-09-30T05:54:40.353Z,1016.30
2017-09-30T05:56:01.151Z,1016.27
2017-09-30T05:57:22.326Z,1016.26
2017-09-30T05:58:42.931Z,1016.22
2017-09-30T06:00:03.452Z,1016.20
2017-09-30T06:01:25.163Z,1016.21
2017-09-30T06:02:45.734Z,1016.20
2017-09-30T06:04:06.229Z,1016.27
2017-09-30T06:05:27.010Z,1016.32
2017-09-30T06:06:47.632Z,1016.40
2017-09-30T06:08:08.618Z,1016.44
2017-09-30T06:09:29.176Z,1016.50
2017-09-30T06:10:49.753Z,1016.51
2017-09-30T06:12:11.347Z,1016.51
2017-09-30T06:13:31.944Z,1016.51
2017-09-30T06:14:52.655Z,1016.51
2017-09-30T06:16:13.284Z,1016.58
2017-09-30T06:17:34.053Z,1016.54
2017-09-30T06:18:54.847Z,1016.51
2017-09-30T06:20:15.660Z,1016.53
2017-09-30T06:21:36.299Z,1016.55
2017-09-30T06:22:57.196Z,1016.49
2017-09-30T06:24:18.185Z,1016.52
2017-09-30T06:25:39.425Z,1016.48
2017-09-30T06:27:00.092Z,1016.50
2017-09-30T06:28:21.403Z,1016.45
2017-09-30T06:29:42.097Z,1016.38
2017-09-30T06:31:02.866Z,1016.32
2017-09-30T06:32:23.396Z,1016.24
2017-09-30T06:33:45.147Z,1016.25
2017-09-30T06:35:05.868Z,1016.09
2017-09-30T06:36:26.393Z,1016.05
2017-09-30T06:37:46.961Z,1016.02
2017-09-30T06:39:07.608Z,1016.04
2017-09-30T06:40:28.316Z,1016.03
2017-09-30T06:41:48.922Z,1016.00
2017-09-30T06:43:09.633Z,1015.99
2017-09-30T06:44:30.165Z,1016.00
2017-09-30T06:45:51.021Z,1016.00
2017-09-30T06:47:11.611Z,1016.05
2017-09-30T06:48:32.341Z,1016.06
2017-09-30T06:49:53.332Z,1016.14
2017-09-30T06:51:13.895Z,1016.08
2017-09-30T06:52:36.098Z,1016.06
2017-09-30T06:53:57.049Z,1015.99
2017-09-30T06:55:17.722Z,1016.04
2017-09-30T06:56:38.876Z,1016.07
2017-09-30T06:57:59.526Z,1016.03
2017-09-30T06:59:20.426Z,1016.04
2017-09-30T07:00:42.312Z,1016.02
2017-09-30T07:02:03.177Z,1016.11
2017-09-30T07:03:23.642Z,1016.07
2017-09-30T07:04:44.209Z,1016.10
2017-09-30T07:06:05.144Z,1016.07
2017-09-30T07:07:25.866Z,1016.06
2017-09-30T07:08:46.528Z,1016.09
2017-09-30T07:10:07.241Z,1016.11
2017-09-30T07:11:28.093Z,1016.11
2017-09-30T07:12:49.048Z,1016.13
2017-09-30T07:14:10.581Z,1016.15
2017-09-30T07:15:31.209Z,1016.19
2017-09-30T07:16:52.347Z,1016.17
2017-09-30T07:18:13.116Z,1016.23
2017-09-30T07:19:33.779Z,1016.25
2017-09-30T07:20:54.525Z,1016.25
2017-09-30T07:22:15.473Z,1016.21
2017-09-30T07:23:36.290Z,1016.24
2017-09-30T07:24:57.063Z,1016.18
2017-09-30T07:26:17.764Z,1016.19
2017-09-30T07:27:38.441Z,1016.14
2017-09-30T07:28:59.274Z,1016.13
2017-09-30T07:30:19.896Z,1016.14
2017-09-30T07:31:40.639Z,1016.09
2017-09-30T07:33:02.944Z,1016.09
2017-09-30T07:34:23.480Z,1016.04
2017-09-30T07:35:44.147Z,1016.03
2017-09-30T07:37:05.299Z,1016.04
2017-09-30T07:38:26.077Z,1016.02
2017-09-30T07:39:46.837Z,1016.00
2017-09-30T07:41:08.167Z,1016.00
2017-09-30T07:42:28.913Z,1016.01
2017-09-30T07:43:49.595Z,1016.08
2017-09-30T07:45:10.582Z,1016.12
2017-09-30T07:46:31.261Z,1016.17
2017-09-30T07:47:53.304Z,1016.19
2017-09-30T07:49:14.213Z,1016.17
2017-09-30T07:50:35.213Z,1016.25
2017-09-30T07:51:57.054Z,1016.21
2017-09-30T07:53:18.083Z,1016.24
2017-09-30T07:54:38.765Z,1016.19
2017-09-30T07:56:00.085Z,1016.19
2017-09-30T07:57:20.899Z,1016.14
2017-09-30T07:58:41.811Z,1016.14
2017-09-30T08:00:03.502Z,1016.08
2017-09-30T08:01:24.140Z,1016.15
2017-09-30T08:02:44.860Z,1016.13
2017-09-30T08:04:05.490Z,1016.13
2017-09-30T08:05:26.418Z,1016.19
2017-09-30T08:06:47.318Z,1016.20
2017-09-30T08:08:07.958Z,1016.21
2017-09-30T08:15:58.676Z,1016.18
2017-09-30T08:17:19.457Z,1016.26
2017-09-30T08:18:40.044Z,1016.24
2017-09-30T08:20:02.444Z,1016.22
2017-09-30T08:21:23.339Z,1016.19
2017-09-30T08:22:44.037Z,1016.10
2017-09-30T08:24:04.931Z,1016.21
2017-09-30T08:25:26.279Z,1016.19
2017-09-30T08:26:47.000Z,1016.19
2017-09-30T08:28:08.242Z,1016.17
2017-09-30T08:29:29.025Z,1016.15
2017-09-30T08:30:49.934Z,1016.14
2017-09-30T08:32:10.867Z,1016.09
2017-09-30T08:33:32.423Z,1016.01
2017-09-30T08:34:53.294Z,1015.99
2017-09-30T08:36:14.130Z,1015.91
2017-09-30T08:37:35.823Z,1015.88
2017-09-30T08:38:56.554Z,1015.90
2017-09-30T08:40:18.472Z,1015.96
2017-09-30T08:41:39.069Z,1015.95
2017-09-30T08:43:05.406Z,1015.96
2017-09-30T08:44:26.498Z,1015.93
2017-09-30T08:45:47.190Z,1015.90
2017-09-30T08:47:07.940Z,1015.97
2017-09-30T08:48:28.888Z,1015.94
2017-09-30T08:49:49.842Z,1015.97
2017-09-30T08:51:10.458Z,1015.91
2017-09-30T08:52:31.205Z,1015.90
2017-09-30T08:53:52.220Z,1015.93
2017-09-30T08:55:12.980Z,1015.94
2017-09-30T08:56:34.728Z,1015.92
2017-09-30T08:57:56.079Z,1015.95
2017-09-30T08:59:16.736Z,1015.94
2017-09-30T09:00:37.416Z,1015.98
2017-09-30T09:01:58.361Z,1015.89
2017-09-30T09:03:19.271Z,1015.94
2017-09-30T09:04:40.413Z,1015.92
2017-09-30T09:06:01.922Z,1015.96
2017-09-30T09:07:23.485Z,1015.95
2017-09-30T09:08:46.704Z,1015.90
2017-09-30T09:10:07.425Z,1015.90
2017-09-30T09:11:29.090Z,1015.87
2017-09-30T09:12:50.733Z,1015.86
2017-09-30T09:14:12.276Z,1015.86
2017-09-30T09:15:33.606Z,1015.82
2017-09-30T09:16:56.438Z,1015.79
2017-09-30T09:18:19.355Z,1015.81
2017-09-30T09:19:40.195Z,1015.80
2017-09-30T09:21:14.433Z,1015.79
2017-09-30T09:22:36.543Z,1015.81
2017-09-30T09:23:59.170Z,1015.80
2017-09-30T09:25:20.659Z,1015.82
2017-09-30T09:26:41.934Z,1014.52
2017-09-30T09:28:02.719Z,1015.88
2017-09-30T09:29:24.979Z,1015.89
2017-09-30T09:30:50.637Z,1015.91
2017-09-30T09:32:13.042Z,1015.90
2017-09-30T09:33:36.147Z,1015.90
2017-09-30T09:34:59.941Z,1015.86
2017-09-30T09:36:23.134Z,1015.84
2017-09-30T09:37:44.416Z,1015.80
2017-09-30T09:39:06.231Z,1015.38
2017-09-30T09:40:28.594Z,1015.74
2017-09-30T09:41:50.172Z,1015.76
2017-09-30T09:43:12.347Z,1015.78
2017-09-30T09:44:34.452Z,1015.77
2017-09-30T09:45:59.797Z,1015.76
2017-09-30T09:47:21.473Z,1015.76
2017-09-30T09:48:43.723Z,1015.78
2017-09-30T09:50:05.273Z,1015.75
2017-09-30T09:51:27.831Z,1015.79
2017-09-30T09:52:48.875Z,1015.71
2017-09-30T09:54:11.205Z,1015.69
2017-09-30T09:55:34.638Z,1015.64
2017-09-30T09:56:56.856Z,1015.65
2017-09-30T09:58:18.450Z,1015.59
2017-09-30T09:59:39.860Z,1015.59
2017-09-30T10:01:06.532Z,1015.58
2017-09-30T10:02:27.862Z,1015.62
2017-09-30T10:03:49.257Z,1015.55
2017-09-30T10:05:13.505Z,1015.53
2017-09-30T10:06:44.294Z,1015.57
2017-09-30T10:08:06.045Z,1015.53
2017-09-30T10:09:27.089Z,1015.55
2017-09-30T10:10:53.435Z,1015.56
2017-09-30T10:12:15.722Z,1015.58
2017-09-30T10:13:36.474Z,1015.62
2017-09-30T10:14:57.839Z,1015.61
2017-09-30T10:16:18.977Z,1015.59
2017-09-30T10:17:39.683Z,1015.61
2017-09-30T10:19:00.773Z,1015.66
2017-09-30T10:20:22.885Z,1015.62
2017-09-30T10:21:43.526Z,1015.62
2017-09-30T10:23:04.337Z,1015.61
2017-09-30T10:24:25.055Z,1015.66
2017-09-30T10:25:45.607Z,1015.63
2017-09-30T10:27:08.203Z,1015.61
2017-09-30T10:28:29.004Z,1015.62
2017-09-30T10:29:51.402Z,1015.56
2017-09-30T10:31:12.135Z,1015.61
2017-09-30T10:32:33.564Z,1015.63
2017-09-30T10:33:54.532Z,1015.57
2017-09-30T10:35:16.315Z,1015.57
2017-09-30T10:36:37.656Z,1015.56
2017-09-30T10:37:58.883Z,1015.55
2017-09-30T10:39:19.655Z,1013.41
2017-09-30T10:40:42.287Z,1015.46
2017-09-30T10:42:03.732Z,1015.45
2017-09-30T10:43:24.872Z,1015.40
2017-09-30T10:44:45.871Z,1015.39
2017-09-30T10:46:07.023Z,1015.35
2017-09-30T10:47:28.609Z,1015.36
2017-09-30T10:48:50.782Z,1015.39
2017-09-30T10:50:12.796Z,1015.37
2017-09-30T10:51:34.790Z,1015.32
2017-09-30T10:52:56.009Z,1015.29
2017-09-30T10:54:17.106Z,1015.23
2017-09-30T10:55:42.115Z,1015.26
2017-09-30T10:57:02.888Z,1015.21
2017-09-30T10:58:24.700Z,1015.13
2017-09-30T10:59:46.823Z,1015.17
2017-09-30T11:01:08.142Z,1015.17
2017-09-30T11:02:29.816Z,1015.16
2017-09-30T11:03:51.769Z,1015.17
2017-09-30T11:05:13.409Z,1015.09
2017-09-30T11:06:35.356Z,1015.08
2017-09-30T11:07:56.972Z,1015.02
2017-09-30T11:09:20.782Z,1015.00
2017-09-30T11:10:48.405Z,1014.98
2017-09-30T11:12:09.711Z,1014.98
2017-09-30T11:13:34.065Z,1015.00
2017-09-30T11:14:55.144Z,1014.96
2017-09-30T11:16:17.175Z,1014.95
2017-09-30T11:17:42.961Z,1013.19
2017-09-30T11:19:06.373Z,1014.90
2017-09-30T11:20:29.511Z,1014.89
2017-09-30T11:21:51.876Z,1014.91
2017-09-30T11:23:13.637Z,1014.89
2017-09-30T11:24:34.406Z,1014.89
2017-09-30T11:25:55.450Z,1014.82
2017-09-30T11:27:16.618Z,1014.82
2017-09-30T11:28:38.312Z,1014.77
2017-09-30T11:29:59.290Z,1014.74
2017-09-30T11:31:20.149Z,1014.77
2017-09-30T11:32:40.985Z,1014.73
2017-09-30T11:34:02.096Z,1014.65
2017-09-30T11:35:22.814Z,1014.59
2017-09-30T11:36:43.589Z,1014.64
2017-09-30T11:38:04.454Z,1014.62
2017-09-30T11:39:25.396Z,1014.60
2017-09-30T11:40:46.604Z,1014.56
2017-09-30T11:42:08.487Z,1014.56
2017-09-30T11:43:32.526Z,1014.58
2017-09-30T11:44:53.750Z,1014.09
2017-09-30T11:46:14.556Z,1014.52
2017-09-30T11:47:35.335Z,1014.45
2017-09-30T11:48:57.179Z,1012.67
2017-09-30T11:55:56.292Z,1014.41
2017-09-30T11:57:16.984Z,1014.43
2017-09-30T11:58:37.820Z,1014.44
2017-09-30T11:59:58.548Z,1014.44
2017-09-30T12:01:20.395Z,1014.42
2017-09-30T12:02:41.874Z,1014.43
2017-09-30T12:04:02.941Z,1014.40
2017-09-30T12:05:24.487Z,1014.34
2017-09-30T12:06:45.420Z,1014.34
2017-09-30T12:08:06.659Z,1014.29
2017-09-30T12:09:28.433Z,1014.33
2017-09-30T12:10:50.729Z,1014.33
2017-09-30T12:12:11.855Z,1014.29
2017-09-30T12:13:33.697Z,1014.25
2017-09-30T12:14:54.728Z,1014.25
2017-09-30T12:16:15.811Z,1014.19
2017-09-30T12:17:37.907Z,1014.19
2017-09-30T12:18:59.188Z,1014.15
2017-09-30T12:20:20.844Z,1014.12
2017-09-30T12:21:41.997Z,1014.11
2017-09-30T12:23:03.355Z,1014.08
2017-09-30T12:24:24.236Z,1014.07
2017-09-30T12:25:45.065Z,1014.08
2017-09-30T12:27:06.254Z,1013.97
2017-09-30T12:28:29.686Z,1013.98
2017-09-30T12:29:50.730Z,1013.94
2017-09-30T12:31:12.119Z,1013.94
2017-09-30T12:32:33.362Z,1013.95
2017-09-30T12:33:54.653Z,1013.97
2017-09-30T12:35:16.013Z,1013.97
2017-09-30T12:36:36.991Z,1014.00
2017-09-30T12:37:57.775Z,1013.95
2017-09-30T12:39:18.592Z,1013.98
2017-09-30T12:40:39.453Z,1013.97
2017-09-30T12:42:00.376Z,1013.93
2017-09-30T12:43:22.685Z,1013.96
2017-09-30T12:44:43.975Z,1013.94
2017-09-30T12:46:04.780Z,1013.95
2017-09-30T12:47:25.520Z,1013.98
2017-09-30T12:48:46.251Z,1013.94
2017-09-30T12:50:07.319Z,1013.94
2017-09-30T12:51:28.115Z,1013.94
2017-09-30T12:52:49.937Z,1014.00
2017-09-30T12:54:11.288Z,1013.95
2017-09-30T12:55:33.050Z,1013.91
2017-09-30T12:56:53.853Z,1013.94
2017-09-30T12:58:14.562Z,1013.95
2017-09-30T12:59:35.583Z,1013.96
2017-09-30T13:00:56.839Z,1013.97
2017-09-30T13:02:19.084Z,1013.95
2017-09-30T13:03:39.846Z,1013.97
2017-09-30T13:05:01.565Z,1013.97
2017-09-30T13:06:22.471Z,1012.26
2017-09-30T13:07:43.256Z,1013.94
2017-09-30T13:09:04.340Z,1013.96
2017-09-30T13:10:25.092Z,1013.95
2017-09-30T13:11:46.815Z,1013.91
2017-09-30T13:13:07.571Z,1013.90
2017-09-30T13:14:28.813Z,1013.87
2017-09-30T13:15:50.248Z,1013.88
2017-09-30T13:17:11.136Z,1013.85
2017-09-30T13:18:31.856Z,1013.86
2017-09-30T13:19:52.977Z,1013.88
2017-09-30T13:21:13.730Z,1013.84
2017-09-30T13:22:36.302Z,1013.85
2017-09-30T13:23:57.074Z,1013.86
2017-09-30T13:25:17.680Z,1013.84
2017-09-30T13:26:38.409Z,1013.87
2017-09-30T13:37:16.623Z,1013.78
2017-09-30T13:38:37.440Z,1013.81
2017-09-30T13:39:58.320Z,1013.84
2017-09-30T13:41:19.054Z,1013.82
2017-09-30T13:42:39.989Z,1013.83
2017-09-30T13:44:00.733Z,1013.82
2017-09-30T13:45:22.072Z,1012.16
2017-09-30T13:46:42.760Z,1013.84
2017-09-30T13:48:04.576Z,1013.86
2017-09-30T13:49:26.445Z,1013.86
2017-09-30T13:50:46.991Z,1013.87
2017-09-30T13:52:07.693Z,1013.89
2017-09-30T13:53:29.678Z,1011.99
2017-09-30T13:54:50.469Z,1013.83
2017-09-30T13:56:11.938Z,1013.85
2017-09-30T13:57:32.580Z,1013.90
2017-09-30T13:58:54.450Z,1013.99
2017-09-30T14:00:14.944Z,1012.13
2017-09-30T14:01:36.352Z,1014.03
2017-09-30T14:02:57.339Z,1014.01
2017-09-30T14:04:18.143Z,1014.06
2017-09-30T14:05:39.274Z,1011.84
2017-09-30T14:06:59.975Z,1014.17
2017-09-30T14:08:20.562Z,1014.27
2017-09-30T14:09:41.479Z,1014.29
2017-09-30T14:11:02.333Z,1014.38
2017-09-30T14:12:24.114Z,1014.48
2017-09-30T14:13:45.141Z,1014.50
2017-09-30T14:15:06.373Z,1014.58
2017-09-30T14:16:27.141Z,1014.61
2017-09-30T14:17:48.675Z,1014.55
2017-09-30T14:19:09.664Z,1014.57
2017-09-30T14:20:31.256Z,1014.67
2017-09-30T14:21:52.470Z,1014.71
2017-09-30T14:23:14.045Z,1014.82
2017-09-30T14:24:34.934Z,1014.79
2017-09-30T14:25:56.073Z,1014.78
2017-09-30T14:27:17.629Z,1014.86
2017-09-30T14:28:38.385Z,1014.86
2017-09-30T14:35:22.595Z,1014.94
2017-09-30T14:36:43.304Z,1014.95
2017-09-30T14:38:05.238Z,1014.94
2017-09-30T14:39:26.121Z,1014.90
2017-09-30T14:40:46.986Z,1014.93
2017-09-30T14:42:07.624Z,1014.89
2017-09-30T14:43:28.319Z,1014.93
2017-09-30T14:44:49.927Z,1014.89
2017-09-30T14:46:10.542Z,1014.90
2017-09-30T14:47:31.241Z,1014.86
2017-09-30T14:48:52.531Z,1014.87
2017-09-30T14:50:13.976Z,1014.77
2017-09-30T14:51:34.642Z,1014.79
2017-09-30T14:52:55.319Z,1014.85
2017-09-30T14:54:16.155Z,1014.94
2017-09-30T14:55:36.684Z,1014.97
2017-09-30T14:56:57.814Z,1014.98
2017-09-30T14:58:18.475Z,1015.03
2017-09-30T14:59:39.240Z,1015.03
2017-09-30T15:01:00.663Z,1015.11
2017-09-30T15:02:21.429Z,1015.16
2017-09-30T15:03:42.741Z,1015.21
2017-09-30T15:05:04.064Z,1014.40
2017-09-30T15:06:25.194Z,1015.22
2017-09-30T15:07:46.566Z,1015.24
2017-09-30T15:09:09.379Z,1015.25
2017-09-30T15:10:30.304Z,1015.27
2017-09-30T15:11:51.150Z,1015.29
2017-09-30T15:13:12.435Z,1015.31
2017-09-30T15:14:34.973Z,1015.18
2017-09-30T15:15:55.931Z,1015.17
2017-09-30T15:17:16.821Z,1015.21
2017-09-30T15:18:40.260Z,1015.25
2017-09-30T15:20:01.890Z,1015.26
2017-09-30T15:21:22.972Z,1015.32
2017-09-30T15:22:43.709Z,1015.32
2017-09-30T15:24:04.929Z,1015.39
2017-09-30T15:25:26.265Z,1015.29
2017-09-30T15:26:47.268Z,1015.46
2017-09-30T15:28:09.746Z,1015.52
2017-09-30T15:29:31.087Z,1015.54
2017-09-30T15:30:52.781Z,1015.67
2017-09-30T15:32:13.812Z,1015.75
2017-09-30T15:33:34.306Z,1015.68
2017-09-30T15:34:55.051Z,1015.72
2017-09-30T15:36:15.873Z,1015.61
2017-09-30T15:37:36.383Z,1015.55
2017-09-30T15:38:57.385Z,1015.46
2017-09-30T15:40:18.729Z,1015.51
2017-09-30T15:41:39.714Z,1015.50
2017-09-30T15:43:00.688Z,1015.52
2017-09-30T15:44:21.405Z,1015.58
2017-09-30T15:45:42.526Z,1015.55
2017-09-30T15:47:03.478Z,1015.56
2017-09-30T15:48:25.265Z,1015.54
2017-09-30T15:49:46.893Z,1015.56
2017-09-30T15:51:09.257Z,1015.65
2017-09-30T15:52:29.853Z,1015.73
2017-09-30T15:53:52.817Z,1015.80
2017-09-30T15:55:13.896Z,1015.87
2017-09-30T15:56:35.558Z,1015.96
2017-09-30T15:57:56.445Z,1015.95
2017-09-30T15:59:18.043Z,1016.03
2017-09-30T16:00:39.552Z,1016.05
2017-09-30T16:02:00.955Z,1016.11
2017-09-30T16:03:21.884Z,1016.14
2017-09-30T16:04:43.229Z,1016.20
2017-09-30T16:06:06.106Z,1016.30
2017-09-30T16:07:27.304Z,1016.27
2017-09-30T16:08:48.217Z,1016.31
2017-09-30T16:10:08.893Z,1016.26
2017-09-30T16:11:29.854Z,1016.22
2017-09-30T16:12:51.407Z,1016.19
2017-09-30T16:14:12.721Z,1016.20
2017-09-30T16:15:33.310Z,1016.21
2017-09-30T16:16:53.987Z,1016.22
2017-09-30T16:18:15.300Z,1016.26
2017-09-30T16:19:37.232Z,1016.22
2017-09-30T16:20:59.762Z,1016.28
2017-09-30T16:22:22.691Z,1016.21
2017-09-30T16:23:44.543Z,1016.26
2017-09-30T16:25:06.438Z,1016.23
2017-09-30T16:26:27.831Z,1016.25
2017-09-30T16:27:49.665Z,1016.15
2017-09-30T16:29:10.975Z,1016.18
2017-09-30T16:30:32.643Z,1016.15
2017-09-30T16:31:59.774Z,1016.15
2017-09-30T16:33:21.711Z,1016.18
2017-09-30T16:34:43.497Z,1016.16
2017-09-30T16:36:04.416Z,1016.17
2017-09-30T16:37:25.039Z,1016.19
2017-09-30T16:38:45.664Z,1016.21
2017-09-30T16:40:06.676Z,1016.25
2017-09-30T16:41:27.336Z,1016.32
2017-09-30T16:42:48.070Z,1016.31
2017-09-30T16:44:10.061Z,1016.31
2017-09-30T16:45:30.856Z,1016.32
2017-09-30T16:46:51.676Z,1016.32
2017-09-30T16:48:12.365Z,1016.33
2017-09-30T16:49:33.022Z,1016.39
2017-09-30T16:50:53.993Z,1016.33
2017-09-30T16:52:15.437Z,1016.39